Time;durP1;ratioP1;P1;durP2;ratioP2;P2;SDS_P1;SDS_P2;PMS_P1;PMS_P2;Temp;Humidity;BMP_temperature;BMP_pressure;BME280_temperature;BME280_humidity;BME280_pressure;Samples;Min_cycle;Max_cycle;Signal;HPM_P1;HPM_P2
2023/12/16 00:01:14;;;;;;;0.10;0.10;;;7.60;99.90;;;;;;4969621;28;20054;-68
2023/12/16 00:03:39;;;;;;;2.63;1.77;;;7.60;99.90;;;;;;4963124;28;20039;-68
2023/12/16 00:06:05;;;;;;;0.30;0.30;;;7.50;99.90;;;;;;4957804;28;20054;-68
2023/12/16 00:08:31;;;;;;;0.10;0.10;;;7.50;99.90;;;;;;4960736;28;20445;-69
2023/12/16 00:10:57;;;;;;;0.10;0.10;;;7.50;99.90;;;;;;4969449;28;20137;-69
2023/12/16 00:13:23;;;;;;;0.10;0.10;;;7.40;99.90;;;;;;4984235;28;20087;-69
2023/12/16 00:15:48;;;;;;;0.10;0.10;;;7.40;99.90;;;;;;4962444;28;20584;-69
2023/12/16 00:18:14;;;;;;;0.10;0.10;;;7.40;99.90;;;;;;4962580;28;20055;-69
2023/12/16 00:20:39;;;;;;;0.10;0.10;;;7.40;99.90;;;;;;4981376;28;20062;-69
2023/12/16 00:23:05;;;;;;;0.10;0.10;;;7.30;99.90;;;;;;4955747;28;20051;-69
2023/12/16 00:25:30;;;;;;;0.10;0.10;;;7.30;99.90;;;;;;4965655;28;20057;-69
2023/12/16 00:27:56;;;;;;;0.10;0.10;;;7.20;99.90;;;;;;4955882;28;20422;-69
2023/12/16 00:30:22;;;;;;;0.10;0.10;;;7.20;99.90;;;;;;4966357;28;20039;-69
2023/12/16 00:32:47;;;;;;;2.92;1.35;;;7.20;99.90;;;;;;4960388;28;20039;-69
2023/12/16 00:35:13;;;;;;;0.10;0.10;;;7.10;99.90;;;;;;4959569;28;20434;-69
2023/12/16 00:37:38;;;;;;;0.10;0.10;;;7.10;99.90;;;;;;4947264;29;20051;-69
2023/12/16 00:40:04;;;;;;;1.30;0.57;;;7.10;99.90;;;;;;4951973;28;20043;-69
2023/12/16 00:42:30;;;;;;;0.13;0.13;;;7.10;99.90;;;;;;4945696;28;20165;-69
2023/12/16 00:44:59;;;;;;;0.20;0.20;;;7.00;99.90;;;;;;4940591;28;20076;-69
2023/12/16 00:47:25;;;;;;;0.22;0.22;;;7.10;99.90;;;;;;4949583;28;20059;-69
2023/12/16 00:49:51;;;;;;;0.22;0.22;;;7.10;99.90;;;;;;4944982;28;20415;-69
2023/12/16 00:52:17;;;;;;;0.22;0.22;;;7.10;99.90;;;;;;4941820;28;20062;-69
2023/12/16 00:54:42;;;;;;;0.10;0.10;;;7.00;99.90;;;;;;4948795;28;20035;-69
2023/12/16 00:57:08;;;;;;;1.20;1.17;;;7.00;99.90;;;;;;4953382;28;20102;-69
2023/12/16 00:59:34;;;;;;;0.10;0.10;;;6.90;99.90;;;;;;4949863;28;20403;-69
2023/12/16 01:01:59;;;;;;;0.10;0.10;;;6.90;99.90;;;;;;4938386;28;20115;-69
2023/12/16 01:04:25;;;;;;;0.10;0.10;;;7.00;99.90;;;;;;4950675;28;20043;-69
2023/12/16 01:06:51;;;;;;;0.10;0.10;;;6.90;99.90;;;;;;4942689;29;20573;-69
2023/12/16 01:09:16;;;;;;;0.10;0.10;;;6.90;99.90;;;;;;4939631;28;20086;-69
2023/12/16 01:11:42;;;;;;;0.10;0.10;;;6.90;99.90;;;;;;4942988;28;20051;-69
2023/12/16 01:14:08;;;;;;;1.08;0.95;;;6.90;99.90;;;;;;4946383;28;20050;-69
2023/12/16 01:16:34;;;;;;;0.10;0.10;;;6.90;99.90;;;;;;4949844;28;20066;-69
2023/12/16 01:18:59;;;;;;;0.10;0.10;;;6.90;99.90;;;;;;4947199;28;20051;-69
2023/12/16 01:21:25;;;;;;;0.10;0.10;;;6.80;99.90;;;;;;4949930;28;20051;-69
2023/12/16 01:23:51;;;;;;;0.55;0.55;;;6.80;99.90;;;;;;4949935;28;20059;-69
2023/12/16 01:26:17;;;;;;;0.95;0.95;;;6.80;99.90;;;;;;4954401;28;20050;-69
2023/12/16 01:28:43;;;;;;;0.10;0.10;;;6.70;99.90;;;;;;4941285;28;20091;-69
2023/12/16 01:31:08;;;;;;;0.10;0.10;;;6.80;99.90;;;;;;4950607;28;20070;-69
2023/12/16 01:33:34;;;;;;;0.10;0.10;;;6.80;99.90;;;;;;4946754;28;20069;-69
2023/12/16 01:36:00;;;;;;;0.88;0.80;;;6.80;99.90;;;;;;4953946;28;20133;-69
2023/12/16 01:38:25;;;;;;;0.63;0.63;;;6.80;99.90;;;;;;4969709;28;20074;-69
2023/12/16 01:40:51;;;;;;;0.10;0.10;;;6.70;99.90;;;;;;4973950;28;20082;-68
2023/12/16 01:43:17;;;;;;;2.08;1.58;;;6.70;99.90;;;;;;4963553;28;20541;-68
2023/12/16 01:45:42;;;;;;;0.10;0.10;;;6.80;99.90;;;;;;4969216;28;20046;-69
2023/12/16 01:48:12;;;;;;;0.10;0.10;;;6.80;99.90;;;;;;4967222;28;20048;-68
2023/12/16 01:50:37;;;;;;;0.20;0.20;;;6.80;99.90;;;;;;4968528;28;20090;-69
2023/12/16 01:53:05;;;;;;;0.10;0.10;;;6.80;99.90;;;;;;4961725;28;20079;-69
2023/12/16 01:55:32;;;;;;;0.10;0.10;;;6.80;99.90;;;;;;4970924;28;20129;-69
2023/12/16 01:57:58;;;;;;;0.10;0.10;;;6.70;99.90;;;;;;4969403;28;20129;-69
2023/12/16 02:00:24;;;;;;;0.32;0.32;;;6.70;99.90;;;;;;4963101;28;20039;-69
2023/12/16 02:02:50;;;;;;;0.10;0.10;;;6.70;99.90;;;;;;4967709;28;20046;-69
2023/12/16 02:05:16;;;;;;;0.65;0.65;;;6.70;99.90;;;;;;4971890;28;20097;-69
2023/12/16 02:07:43;;;;;;;1.77;1.48;;;6.70;99.90;;;;;;4965955;28;20133;-69
2023/12/16 02:10:09;;;;;;;0.10;0.10;;;6.70;99.90;;;;;;4969539;28;20042;-69
2023/12/16 02:12:35;;;;;;;0.10;0.10;;;6.70;99.90;;;;;;4970593;28;20122;-69
2023/12/16 02:15:02;;;;;;;0.32;0.32;;;6.70;99.90;;;;;;4958673;28;20051;-69
2023/12/16 02:17:27;;;;;;;1.02;1.00;;;6.70;99.90;;;;;;4969074;28;20119;-69
2023/12/16 02:19:54;;;;;;;0.10;0.10;;;6.80;99.90;;;;;;4972911;28;20133;-69
2023/12/16 02:22:20;;;;;;;0.10;0.10;;;6.80;99.90;;;;;;4981440;28;20065;-69
2023/12/16 02:24:47;;;;;;;0.10;0.10;;;6.80;99.90;;;;;;4965383;28;20046;-69
2023/12/16 02:27:13;;;;;;;0.20;0.20;;;6.80;99.90;;;;;;4970395;28;20402;-69
2023/12/16 02:29:39;;;;;;;0.10;0.10;;;6.80;99.90;;;;;;4967660;28;20047;-69
2023/12/16 02:32:06;;;;;;;0.63;0.63;;;6.80;99.90;;;;;;4971501;28;20514;-69
2023/12/16 02:34:31;;;;;;;0.40;0.40;;;6.80;99.90;;;;;;4969720;28;20363;-69
2023/12/16 02:36:57;;;;;;;0.10;0.10;;;6.80;99.90;;;;;;4956524;28;20054;-69
2023/12/16 02:39:22;;;;;;;0.32;0.32;;;6.80;99.90;;;;;;4970815;28;20375;-69
2023/12/16 02:41:48;;;;;;;0.10;0.10;;;6.80;99.90;;;;;;4972262;28;20043;-69
2023/12/16 02:44:14;;;;;;;0.10;0.10;;;6.80;99.90;;;;;;4955044;28;20039;-69
2023/12/16 02:46:40;;;;;;;1.02;1.00;;;6.80;99.90;;;;;;4965842;28;20058;-69
2023/12/16 02:49:05;;;;;;;0.10;0.10;;;6.80;99.90;;;;;;4964914;28;20041;-69
2023/12/16 02:51:31;;;;;;;0.10;0.10;;;6.80;99.90;;;;;;4970519;28;20059;-68
2023/12/16 02:53:57;;;;;;;0.10;0.10;;;6.80;99.90;;;;;;4971091;28;20137;-69
2023/12/16 02:56:22;;;;;;;0.10;0.10;;;6.70;99.90;;;;;;4968468;28;20050;-69
2023/12/16 02:58:49;;;;;;;0.20;0.20;;;6.70;99.90;;;;;;4958081;28;20039;-69
2023/12/16 03:01:15;;;;;;;0.10;0.10;;;6.70;99.90;;;;;;4973808;28;20413;-69
2023/12/16 03:03:40;;;;;;;0.10;0.10;;;6.70;99.90;;;;;;4962123;28;20043;-69
2023/12/16 03:06:07;;;;;;;0.08;0.08;;;6.70;99.90;;;;;;4967265;28;20533;-69
2023/12/16 03:08:37;;;;;;;0.10;0.10;;;6.70;99.90;;;;;;4962676;28;20049;-69
2023/12/16 03:11:03;;;;;;;0.10;0.10;;;6.70;99.90;;;;;;4958999;28;20047;-69
2023/12/16 03:13:29;;;;;;;0.10;0.10;;;6.70;99.90;;;;;;4968235;28;20039;-69
2023/12/16 03:15:55;;;;;;;0.10;0.10;;;6.70;99.90;;;;;;4959843;28;20105;-69
2023/12/16 03:18:21;;;;;;;0.10;0.10;;;6.70;99.90;;;;;;4966391;28;20445;-69
2023/12/16 03:20:48;;;;;;;0.10;0.10;;;6.70;99.90;;;;;;4965656;28;20097;-69
2023/12/16 03:23:14;;;;;;;0.10;0.10;;;6.70;99.90;;;;;;4969145;28;20101;-69
2023/12/16 03:25:43;;;;;;;0.05;0.05;;;6.70;99.90;;;;;;4965935;28;20090;-69
2023/12/16 03:28:09;;;;;;;0.20;0.20;;;6.70;99.90;;;;;;4965652;28;20065;-68
2023/12/16 03:30:34;;;;;;;0.17;0.17;;;6.70;99.90;;;;;;4962575;28;20056;-69
2023/12/16 03:33:00;;;;;;;9.48;1.45;;;6.70;99.90;;;;;;4970111;28;20039;-69
2023/12/16 03:35:25;;;;;;;2.28;0.70;;;6.70;99.90;;;;;;4966714;28;20074;-69
2023/12/16 03:37:51;;;;;;;0.38;0.38;;;6.70;99.90;;;;;;4968107;28;20046;-69
2023/12/16 03:40:17;;;;;;;0.60;0.60;;;6.70;99.90;;;;;;4964961;28;20478;-69
2023/12/16 03:42:42;;;;;;;0.20;0.20;;;6.70;99.90;;;;;;4971090;28;20043;-69
2023/12/16 03:45:08;;;;;;;0.10;0.10;;;6.60;99.90;;;;;;4970917;28;20741;-69
2023/12/16 03:47:35;;;;;;;0.55;0.50;;;6.60;99.90;;;;;;4969951;28;20034;-69
2023/12/16 03:50:00;;;;;;;0.10;0.10;;;6.60;99.90;;;;;;4963956;28;20039;-69
2023/12/16 03:52:26;;;;;;;0.40;0.40;;;6.60;99.90;;;;;;4967993;28;20046;-69
2023/12/16 03:54:52;;;;;;;0.38;0.38;;;6.60;99.90;;;;;;4973899;28;20050;-68
2023/12/16 03:57:17;;;;;;;0.10;0.10;;;6.60;99.90;;;;;;4972239;28;20046;-69
2023/12/16 03:59:43;;;;;;;0.30;0.30;;;6.60;99.90;;;;;;4961150;28;20060;-68
2023/12/16 04:02:08;;;;;;;1.25;1.20;;;6.60;99.90;;;;;;4969919;28;20215;-69
2023/12/16 04:04:35;;;;;;;1.50;1.40;;;6.60;99.90;;;;;;4961741;28;20534;-69
2023/12/16 04:07:01;;;;;;;0.10;0.10;;;6.60;99.90;;;;;;4970399;28;20039;-69
2023/12/16 04:09:27;;;;;;;0.10;0.10;;;6.60;99.90;;;;;;4968919;28;20512;-68
2023/12/16 04:11:53;;;;;;;0.10;0.10;;;6.60;99.90;;;;;;4959424;28;20054;-68
2023/12/16 04:14:18;;;;;;;0.10;0.10;;;6.60;99.90;;;;;;4968820;28;20039;-68
2023/12/16 04:16:44;;;;;;;32.35;1.65;;;6.70;99.90;;;;;;4968796;28;20042;-69
2023/12/16 04:19:12;;;;;;;0.20;0.20;;;6.70;99.90;;;;;;4967588;28;20046;-68
2023/12/16 04:21:37;;;;;;;4.85;2.15;;;6.70;99.90;;;;;;4966453;28;20043;-68
2023/12/16 04:24:03;;;;;;;0.10;0.10;;;6.70;99.90;;;;;;4965212;28;20053;-69
2023/12/16 04:26:29;;;;;;;0.10;0.10;;;6.80;99.90;;;;;;4960513;28;20043;-69
2023/12/16 04:28:54;;;;;;;1.10;1.00;;;6.70;99.90;;;;;;4966248;28;20482;-68
2023/12/16 04:31:20;;;;;;;4.97;3.08;;;6.80;99.90;;;;;;4958772;28;20047;-68
2023/12/16 04:33:46;;;;;;;0.45;0.45;;;6.80;99.90;;;;;;4964479;28;20038;-68
2023/12/16 04:36:14;;;;;;;0.22;0.22;;;6.80;99.90;;;;;;4967676;28;20061;-68
2023/12/16 04:38:40;;;;;;;0.20;0.20;;;6.80;99.90;;;;;;4966434;28;20058;-68
2023/12/16 04:41:06;;;;;;;0.32;0.32;;;6.80;99.90;;;;;;4960093;28;20066;-69
2023/12/16 04:43:32;;;;;;;0.38;0.38;;;6.90;99.90;;;;;;4960598;28;20043;-69
2023/12/16 04:45:58;;;;;;;0.30;0.30;;;6.90;99.90;;;;;;4964158;28;20053;-68
2023/12/16 04:48:23;;;;;;;1.02;1.02;;;6.90;99.90;;;;;;4960472;28;20066;-69
2023/12/16 04:50:49;;;;;;;0.45;0.43;;;6.90;99.90;;;;;;4969767;28;20047;-69
2023/12/16 04:53:14;;;;;;;0.10;0.10;;;6.90;99.90;;;;;;4973206;28;20038;-69
2023/12/16 04:55:40;;;;;;;0.17;0.17;;;6.90;99.90;;;;;;4984014;28;20047;-69
2023/12/16 04:58:06;;;;;;;1.00;1.00;;;7.00;99.90;;;;;;4957415;28;20707;-68
2023/12/16 05:00:32;;;;;;;0.57;0.57;;;7.00;99.90;;;;;;4972617;28;20046;-69
2023/12/16 05:02:58;;;;;;;0.10;0.10;;;7.00;99.90;;;;;;4972327;28;20058;-68
2023/12/16 05:05:23;;;;;;;0.10;0.10;;;7.00;99.90;;;;;;4972089;28;20438;-69
2023/12/16 05:07:49;;;;;;;0.10;0.10;;;7.00;99.90;;;;;;4965336;28;20113;-69
2023/12/16 05:10:14;;;;;;;0.88;0.85;;;7.00;99.90;;;;;;4972755;28;20471;-69
2023/12/16 05:12:40;;;;;;;0.40;0.40;;;7.00;99.90;;;;;;4972065;28;20409;-69
2023/12/16 05:15:06;;;;;;;0.28;0.28;;;7.00;99.90;;;;;;4961699;28;20039;-69
2023/12/16 05:17:32;;;;;;;0.10;0.10;;;7.00;99.90;;;;;;4968298;28;20146;-69
2023/12/16 05:19:58;;;;;;;0.20;0.20;;;7.00;99.90;;;;;;4971733;28;20046;-69
2023/12/16 05:22:24;;;;;;;0.10;0.10;;;7.00;99.90;;;;;;4963011;28;20034;-69
2023/12/16 05:24:50;;;;;;;0.10;0.10;;;7.00;99.90;;;;;;4972016;28;20093;-69
2023/12/16 05:27:15;;;;;;;0.73;0.73;;;7.00;99.90;;;;;;4969896;28;20058;-69
2023/12/16 05:29:41;;;;;;;0.20;0.20;;;7.00;99.90;;;;;;4972438;28;20490;-69
2023/12/16 05:32:07;;;;;;;0.68;0.55;;;7.00;99.90;;;;;;4969562;28;20053;-69
2023/12/16 05:34:32;;;;;;;0.10;0.10;;;7.10;99.90;;;;;;4961829;28;20115;-69
2023/12/16 05:36:58;;;;;;;0.17;0.17;;;7.10;99.90;;;;;;4969521;28;20066;-68
2023/12/16 05:39:25;;;;;;;0.63;0.63;;;7.10;99.90;;;;;;4961785;28;20042;-69
2023/12/16 05:41:50;;;;;;;0.10;0.10;;;7.20;99.90;;;;;;4964044;28;20130;-69
2023/12/16 05:44:16;;;;;;;1.55;1.25;;;7.10;99.90;;;;;;4968818;28;20117;-69
2023/12/16 05:46:41;;;;;;;1.55;1.50;;;7.10;99.90;;;;;;4969645;28;20054;-69
2023/12/16 05:49:07;;;;;;;0.20;0.20;;;7.10;99.90;;;;;;4969562;28;20498;-69
2023/12/16 05:51:40;;;;;;;0.10;0.10;;;7.10;99.90;;;;;;4973635;28;20394;-69
2023/12/16 05:54:08;;;;;;;0.52;0.52;;;7.10;99.90;;;;;;4960742;28;20043;-69
2023/12/16 05:56:33;;;;;;;0.50;0.50;;;7.10;99.90;;;;;;4968252;28;20129;-69
2023/12/16 05:58:59;;;;;;;0.85;0.85;;;7.10;99.90;;;;;;4971455;28;20171;-69
2023/12/16 06:01:25;;;;;;;0.40;0.40;;;7.10;99.90;;;;;;4970557;28;20467;-69
2023/12/16 06:03:51;;;;;;;0.32;0.32;;;7.10;99.90;;;;;;4963492;28;20051;-69
2023/12/16 06:06:17;;;;;;;10.05;3.40;;;7.10;99.90;;;;;;4971814;28;20047;-69
2023/12/16 06:08:44;;;;;;;0.20;0.20;;;7.10;99.90;;;;;;4963032;28;20050;-69
2023/12/16 06:11:13;;;;;;;2.03;1.85;;;7.10;99.90;;;;;;4965555;28;20081;-69
2023/12/16 06:13:39;;;;;;;0.68;0.68;;;7.10;99.90;;;;;;4968752;28;20038;-69
2023/12/16 06:16:07;;;;;;;0.10;0.10;;;7.10;99.90;;;;;;4970913;28;20061;-69
2023/12/16 06:18:36;;;;;;;1.75;1.55;;;7.20;99.90;;;;;;4966091;28;20408;-69
2023/12/16 06:21:02;;;;;;;0.10;0.10;;;7.20;99.90;;;;;;4975214;28;20150;-69
2023/12/16 06:23:30;;;;;;;0.20;0.20;;;7.20;99.90;;;;;;4971241;28;20121;-69
2023/12/16 06:25:55;;;;;;;0.10;0.10;;;7.20;99.90;;;;;;4962146;28;20051;-69
2023/12/16 06:28:21;;;;;;;0.10;0.10;;;7.20;99.90;;;;;;4968158;28;20054;-69
2023/12/16 06:30:47;;;;;;;0.38;0.38;;;7.20;99.90;;;;;;4958513;28;20047;-68
2023/12/16 06:33:12;;;;;;;0.85;0.85;;;7.30;99.90;;;;;;4965125;28;20391;-69
2023/12/16 06:35:38;;;;;;;0.98;0.98;;;7.30;99.90;;;;;;4971203;28;20922;-69
2023/12/16 06:38:04;;;;;;;2.78;2.53;;;7.30;99.90;;;;;;4959491;28;20047;-69
2023/12/16 06:40:31;;;;;;;0.85;0.85;;;7.30;99.90;;;;;;4964074;28;20056;-69
2023/12/16 06:42:57;;;;;;;0.20;0.20;;;7.40;99.90;;;;;;4965574;28;20055;-69
2023/12/16 06:45:22;;;;;;;0.30;0.30;;;7.40;99.90;;;;;;4959095;28;20105;-69
2023/12/16 06:47:48;;;;;;;1.35;1.02;;;7.40;99.90;;;;;;4966579;28;20134;-69
2023/12/16 06:50:14;;;;;;;0.80;0.52;;;7.40;99.90;;;;;;4964395;28;20054;-69
2023/12/16 06:52:40;;;;;;;0.35;0.35;;;7.50;99.90;;;;;;4989564;28;20375;-69
2023/12/16 06:55:06;;;;;;;0.45;0.45;;;7.50;99.90;;;;;;4962315;28;20057;-70
2023/12/16 06:57:32;;;;;;;0.65;0.65;;;7.50;99.90;;;;;;4956483;28;20043;-70
2023/12/16 06:59:57;;;;;;;0.10;0.10;;;7.50;99.90;;;;;;4970254;28;20445;-69
2023/12/16 07:02:24;;;;;;;5.38;0.95;;;7.60;99.90;;;;;;4972754;28;20652;-69
2023/12/16 07:04:50;;;;;;;0.13;0.13;;;7.60;99.90;;;;;;4962045;28;20101;-70
2023/12/16 07:07:15;;;;;;;0.20;0.20;;;7.60;99.90;;;;;;4967508;28;20050;-70
2023/12/16 07:09:41;;;;;;;0.10;0.10;;;7.60;99.90;;;;;;4965849;28;20047;-70
2023/12/16 07:12:07;;;;;;;0.35;0.35;;;7.60;99.90;;;;;;4962613;28;20046;-69
2023/12/16 07:14:35;;;;;;;0.20;0.20;;;7.70;99.90;;;;;;4966078;28;20082;-71
2023/12/16 07:17:01;;;;;;;0.30;0.30;;;7.70;99.90;;;;;;4984287;28;20058;-70
2023/12/16 07:19:30;;;;;;;2.97;2.67;;;7.70;99.90;;;;;;4964543;28;20068;-69
2023/12/16 07:21:56;;;;;;;0.55;0.55;;;7.80;99.90;;;;;;4964564;28;20557;-70
2023/12/16 07:24:21;;;;;;;1.38;1.13;;;7.80;99.90;;;;;;4968168;28;20046;-70
2023/12/16 07:26:47;;;;;;;0.65;0.65;;;7.80;99.90;;;;;;4964158;28;20058;-70
2023/12/16 07:29:13;;;;;;;0.10;0.10;;;7.90;99.90;;;;;;4968438;28;20047;-70
2023/12/16 07:31:38;;;;;;;0.28;0.28;;;7.90;99.90;;;;;;4967925;28;20042;-70
2023/12/16 07:34:04;;;;;;;0.32;0.32;;;7.90;99.90;;;;;;4967492;28;20487;-70
2023/12/16 07:36:29;;;;;;;0.20;0.20;;;7.90;99.90;;;;;;4964877;28;20142;-71
2023/12/16 07:38:57;;;;;;;0.38;0.38;;;8.00;99.90;;;;;;4971661;28;20116;-71
2023/12/16 07:41:23;;;;;;;0.10;0.10;;;8.00;99.90;;;;;;4959358;28;20058;-71
2023/12/16 07:43:49;;;;;;;1.58;1.05;;;8.00;99.90;;;;;;4964061;28;20307;-71
2023/12/16 07:46:15;;;;;;;6.25;2.28;;;8.00;99.90;;;;;;4980482;28;20047;-70
2023/12/16 07:48:42;;;;;;;0.45;0.45;;;8.00;99.90;;;;;;4957062;28;20065;-70
2023/12/16 07:51:17;;;;;;;1.48;1.38;;;8.00;99.90;;;;;;4971436;28;20051;-71
2023/12/16 07:53:46;;;;;;;0.10;0.10;;;8.00;99.90;;;;;;4960502;28;20458;-70
2023/12/16 07:56:22;;;;;;;0.20;0.20;;;8.10;99.90;;;;;;4970134;28;20058;-71
2023/12/16 07:58:48;;;;;;;0.47;0.47;;;8.10;99.90;;;;;;4968561;28;20067;-70
2023/12/16 08:01:14;;;;;;;0.10;0.10;;;8.10;99.90;;;;;;4966974;28;20447;-71
2023/12/16 08:03:41;;;;;;;0.10;0.10;;;8.10;99.90;;;;;;4955565;28;20093;-71
2023/12/16 08:06:08;;;;;;;0.10;0.10;;;8.10;99.90;;;;;;4959690;28;20053;-71
2023/12/16 08:08:37;;;;;;;0.75;0.75;;;8.10;99.90;;;;;;4966781;28;20418;-71
2023/12/16 08:11:04;;;;;;;0.10;0.10;;;8.10;99.90;;;;;;4996472;28;20043;-71
2023/12/16 08:13:30;;;;;;;2.55;0.65;;;8.10;99.90;;;;;;4968549;28;20133;-71
2023/12/16 08:15:55;;;;;;;0.10;0.10;;;8.10;99.90;;;;;;4968019;28;20129;-71
2023/12/16 08:18:21;;;;;;;0.20;0.20;;;8.10;99.90;;;;;;4975988;28;20125;-71
2023/12/16 08:20:47;;;;;;;2.78;1.75;;;8.10;99.90;;;;;;4964495;28;20035;-70
2023/12/16 08:23:12;;;;;;;2.75;1.27;;;8.10;99.90;;;;;;4968374;28;20125;-71
2023/12/16 08:25:39;;;;;;;0.52;0.52;;;8.10;99.90;;;;;;4972593;28;20822;-71
2023/12/16 08:28:05;;;;;;;0.45;0.45;;;8.10;99.90;;;;;;4969733;28;20058;-70
2023/12/16 08:30:30;;;;;;;5.05;1.98;;;8.20;99.90;;;;;;4960712;28;20035;-71
2023/12/16 08:32:56;;;;;;;0.43;0.43;;;8.20;99.90;;;;;;4966307;28;20050;-71
2023/12/16 08:35:21;;;;;;;0.10;0.10;;;8.20;99.90;;;;;;4968478;28;20046;-71
2023/12/16 08:37:47;;;;;;;0.40;0.40;;;8.20;99.90;;;;;;4965375;28;20053;-71
2023/12/16 08:40:12;;;;;;;0.13;0.13;;;8.20;99.90;;;;;;4960288;28;20105;-71
2023/12/16 08:42:42;;;;;;;1.40;1.20;;;8.20;99.90;;;;;;4975928;28;20035;-71
2023/12/16 08:45:09;;;;;;;0.85;0.85;;;8.20;99.90;;;;;;4968436;28;20054;-71
2023/12/16 08:47:34;;;;;;;0.45;0.45;;;8.30;99.90;;;;;;4961714;28;20054;-71
2023/12/16 08:50:00;;;;;;;0.68;0.68;;;8.30;99.90;;;;;;4962015;28;20046;-71
2023/12/16 08:52:27;;;;;;;0.82;0.82;;;8.30;99.90;;;;;;4976528;28;20046;-71
2023/12/16 08:54:52;;;;;;;1.08;0.98;;;8.40;99.90;;;;;;4972906;28;20047;-71
2023/12/16 08:57:18;;;;;;;0.00;0.00;;;8.40;99.90;;;;;;4963307;28;20407;-71
2023/12/16 08:59:44;;;;;;;0.10;0.10;;;8.40;99.90;;;;;;4966301;28;20365;-71
2023/12/16 09:02:09;;;;;;;1.30;0.90;;;8.40;99.90;;;;;;4969375;28;20159;-71
2023/12/16 09:04:35;;;;;;;0.20;0.20;;;8.50;99.90;;;;;;4967607;28;20093;-71
2023/12/16 09:07:00;;;;;;;2.17;1.10;;;8.40;99.90;;;;;;4957721;28;20551;-71
2023/12/16 09:09:26;;;;;;;31.25;1.30;;;8.50;99.90;;;;;;4968867;28;20051;-71
2023/12/16 09:11:52;;;;;;;4.25;2.00;;;8.50;99.90;;;;;;4960714;28;20046;-71
2023/12/16 09:14:17;;;;;;;0.40;0.40;;;8.50;99.90;;;;;;4959382;28;20085;-71
2023/12/16 09:16:43;;;;;;;7.30;3.67;;;8.50;99.90;;;;;;4981986;28;20046;-71
2023/12/16 09:19:09;;;;;;;0.20;0.20;;;8.50;99.90;;;;;;4963568;28;20050;-71
2023/12/16 09:21:35;;;;;;;0.10;0.10;;;8.50;99.90;;;;;;4957870;28;20047;-71
2023/12/16 09:24:00;;;;;;;0.20;0.20;;;8.50;99.90;;;;;;4963920;28;20039;-70
2023/12/16 09:26:26;;;;;;;0.30;0.30;;;8.50;99.90;;;;;;4959104;28;20125;-71
2023/12/16 09:28:51;;;;;;;0.10;0.10;;;8.60;99.90;;;;;;4967292;28;20058;-71
2023/12/16 09:31:17;;;;;;;0.40;0.40;;;8.60;99.90;;;;;;4976277;28;20054;-71
2023/12/16 09:33:43;;;;;;;0.57;0.57;;;8.60;99.90;;;;;;4966908;28;20545;-71
2023/12/16 09:36:13;;;;;;;0.15;0.15;;;8.70;99.90;;;;;;4959767;28;20058;-70
2023/12/16 09:38:39;;;;;;;0.75;0.75;;;8.70;99.90;;;;;;4961784;28;20043;-71
2023/12/16 09:41:20;;;;;;;0.63;0.63;;;8.70;99.90;;;;;;4961624;28;20534;-71
2023/12/16 09:43:51;;;;;;;3.22;1.75;;;8.80;99.90;;;;;;4964217;28;20082;-70
2023/12/16 09:46:19;;;;;;;0.25;0.25;;;8.80;99.90;;;;;;4968011;28;20401;-71
2023/12/16 09:48:44;;;;;;;1.55;0.85;;;8.80;99.90;;;;;;4961728;28;20112;-71
2023/12/16 09:51:10;;;;;;;0.10;0.10;;;8.80;99.90;;;;;;4970317;28;20122;-71
2023/12/16 09:53:35;;;;;;;0.20;0.20;;;8.80;99.90;;;;;;4975548;28;20586;-71
2023/12/16 09:56:01;;;;;;;0.15;0.15;;;8.80;99.90;;;;;;4972828;28;20050;-71
2023/12/16 09:58:29;;;;;;;2.08;1.58;;;8.80;99.90;;;;;;4963409;28;20069;-71
2023/12/16 10:00:55;;;;;;;0.10;0.10;;;8.90;99.90;;;;;;4972421;28;20394;-71
2023/12/16 10:03:21;;;;;;;0.10;0.10;;;8.80;99.90;;;;;;4969160;28;20421;-71
2023/12/16 10:05:49;;;;;;;0.30;0.30;;;8.80;99.90;;;;;;4965313;28;20038;-70
2023/12/16 10:08:14;;;;;;;1.48;1.02;;;8.90;99.90;;;;;;4969374;28;20047;-71
2023/12/16 10:10:40;;;;;;;5.47;1.23;;;8.80;99.90;;;;;;4958537;28;20054;-71
2023/12/16 10:13:05;;;;;;;1.55;1.08;;;8.80;99.90;;;;;;4972557;28;20039;-71
2023/12/16 10:15:34;;;;;;;1.35;1.20;;;8.80;99.90;;;;;;4977019;28;20482;-70
2023/12/16 10:18:01;;;;;;;0.10;0.10;;;8.80;99.90;;;;;;4967166;28;20077;-70
2023/12/16 10:20:27;;;;;;;3.95;1.08;;;8.80;99.90;;;;;;4961519;28;20097;-70
2023/12/16 10:22:53;;;;;;;0.15;0.15;;;8.80;99.90;;;;;;4971695;28;20046;-69
2023/12/16 10:25:19;;;;;;;0.10;0.10;;;8.80;99.90;;;;;;4964941;28;20039;-70
2023/12/16 10:27:44;;;;;;;0.20;0.20;;;8.80;99.90;;;;;;4969507;28;20078;-70
2023/12/16 10:30:11;;;;;;;0.40;0.40;;;8.80;99.90;;;;;;4965379;28;20142;-70
2023/12/16 10:32:40;;;;;;;0.32;0.32;;;8.80;99.90;;;;;;4968835;28;20062;-70
2023/12/16 10:35:07;;;;;;;0.15;0.15;;;8.80;99.90;;;;;;4964799;28;20486;-70
2023/12/16 10:37:33;;;;;;;0.10;0.10;;;8.80;99.90;;;;;;4964317;28;20134;-70
2023/12/16 10:39:59;;;;;;;0.20;0.20;;;8.80;99.90;;;;;;4966404;28;20289;-70
2023/12/16 10:42:24;;;;;;;1.00;1.00;;;8.90;99.90;;;;;;4967597;28;20082;-70
2023/12/16 10:44:53;;;;;;;0.10;0.10;;;8.90;99.90;;;;;;4963530;28;20572;-70
2023/12/16 10:47:19;;;;;;;3.65;2.75;;;8.90;99.90;;;;;;4966643;28;20078;-69
2023/12/16 10:49:45;;;;;;;0.10;0.10;;;8.90;99.90;;;;;;4985471;28;20589;-70
2023/12/16 10:52:19;;;;;;;4.47;1.65;;;8.90;99.90;;;;;;4966698;28;20039;-69
2023/12/16 10:54:47;;;;;;;;;;;8.90;99.90;;;;;;4964425;28;20391;-69
2023/12/16 10:57:22;;;;;;;0.00;0.00;;;8.90;99.90;;;;;;4967562;28;19922;-70
2023/12/16 11:00:06;;;;;;;0.20;0.20;;;8.90;99.90;;;;;;4959438;28;20524;-69
2023/12/16 11:02:36;;;;;;;1.08;0.52;;;9.00;99.90;;;;;;4966942;28;20485;-69
2023/12/16 11:05:28;;;;;;;0.20;0.20;;;9.00;99.90;;;;;;4953154;28;20043;-69
2023/12/16 11:07:56;;;;;;;1.50;1.40;;;9.00;99.90;;;;;;4962621;28;20058;-69
2023/12/16 11:10:22;;;;;;;0.47;0.47;;;9.00;99.90;;;;;;4971299;28;20050;-70
2023/12/16 11:12:49;;;;;;;0.10;0.10;;;9.00;99.90;;;;;;4976641;28;20058;-69
2023/12/16 11:15:16;;;;;;;0.38;0.38;;;9.10;99.90;;;;;;4955889;28;20050;-71
2023/12/16 11:17:55;;;;;;;0.98;0.98;;;9.10;99.90;;;;;;4967938;28;20057;-71
2023/12/16 11:20:25;;;;;;;0.10;0.10;;;9.10;99.90;;;;;;4964544;28;20070;-70
2023/12/16 11:22:52;;;;;;;0.25;0.25;;;9.10;99.90;;;;;;4961172;28;20047;-71
2023/12/16 11:25:19;;;;;;;0.20;0.20;;;9.20;99.90;;;;;;4966869;28;20550;-71
2023/12/16 11:27:52;;;;;;;0.10;0.10;;;9.20;99.90;;;;;;4957525;28;20464;-70
2023/12/16 11:30:21;;;;;;;0.10;0.10;;;9.20;99.90;;;;;;4956237;28;20133;-71
2023/12/16 11:32:54;;;;;;;0.00;0.00;;;9.20;99.90;;;;;;4962561;28;20070;-71
2023/12/16 11:35:35;;;;;;;0.10;0.10;;;9.20;99.90;;;;;;4962744;28;20058;-71
2023/12/16 11:38:01;;;;;;;1.02;0.98;;;9.20;99.90;;;;;;4971374;28;20057;-71
2023/12/16 11:40:44;;;;;;;0.17;0.17;;;9.20;99.90;;;;;;4962471;28;20570;-70
2023/12/16 11:43:10;;;;;;;0.20;0.20;;;9.30;99.90;;;;;;4978517;28;20130;-71
2023/12/16 11:45:44;;;;;;;0.20;0.20;;;9.30;99.90;;;;;;4959208;28;20057;-71
2023/12/16 11:48:14;;;;;;;0.38;0.38;;;9.30;99.90;;;;;;4970089;28;20050;-71
2023/12/16 11:50:42;;;;;;;1.35;0.82;;;9.30;99.90;;;;;;4969430;28;20065;-71
2023/12/16 11:53:09;;;;;;;0.13;0.13;;;9.40;99.90;;;;;;4969638;28;20051;-71
2023/12/16 11:55:35;;;;;;;0.47;0.47;;;9.40;99.90;;;;;;4961615;28;20389;-71
2023/12/16 11:58:02;;;;;;;0.20;0.20;;;9.40;99.90;;;;;;4975364;28;20038;-71
2023/12/16 12:00:29;;;;;;;0.52;0.52;;;9.40;99.90;;;;;;4964399;28;20039;-71
2023/12/16 12:02:55;;;;;;;0.20;0.20;;;9.40;99.90;;;;;;4961596;28;20146;-71
2023/12/16 12:05:20;;;;;;;0.70;0.70;;;9.40;99.90;;;;;;4964101;28;20113;-71
2023/12/16 12:07:46;;;;;;;0.10;0.10;;;9.40;99.90;;;;;;4963926;28;20058;-71
2023/12/16 12:10:12;;;;;;;0.32;0.32;;;9.40;99.90;;;;;;4961934;28;20046;-71
2023/12/16 12:12:39;;;;;;;0.43;0.43;;;9.40;99.90;;;;;;4966137;28;20038;-71
2023/12/16 12:15:07;;;;;;;0.10;0.10;;;9.40;99.90;;;;;;4967533;28;20518;-71
2023/12/16 12:17:34;;;;;;;2.13;1.35;;;9.40;99.90;;;;;;4963737;28;20038;-71
2023/12/16 12:19:59;;;;;;;0.10;0.10;;;9.40;99.90;;;;;;4959966;28;20047;-71
2023/12/16 12:22:25;;;;;;;0.32;0.32;;;9.50;99.90;;;;;;4965093;28;20042;-71
2023/12/16 12:24:51;;;;;;;0.10;0.10;;;9.40;99.90;;;;;;4954089;28;20057;-70
2023/12/16 12:27:20;;;;;;;0.10;0.10;;;9.50;99.90;;;;;;4952882;28;20051;-71
2023/12/16 12:29:59;;;;;;;0.00;0.00;;;9.50;99.90;;;;;;4964764;28;20055;-71
2023/12/16 12:32:26;;;;;;;0.30;0.30;;;9.50;99.90;;;;;;4961197;28;20122;-70
2023/12/16 12:35:03;;;;;;;1.17;0.45;;;9.50;99.90;;;;;;4961024;28;20070;-71
2023/12/16 12:37:40;;;;;;;0.20;0.20;;;9.50;99.90;;;;;;4962797;28;20141;-71
2023/12/16 12:40:17;;;;;;;0.10;0.10;;;9.60;99.90;;;;;;4965639;28;20131;-71
2023/12/16 12:42:50;;;;;;;0.55;0.55;;;9.60;99.90;;;;;;4961425;28;20133;-70
2023/12/16 12:45:30;;;;;;;0.10;0.10;;;9.60;99.90;;;;;;4958959;28;20055;-71
2023/12/16 12:48:15;;;;;;;0.00;0.00;;;9.60;99.90;;;;;;4962024;28;20213;-70
2023/12/16 12:50:46;;;;;;;0.15;0.15;;;9.60;99.90;;;;;;4968806;28;20430;-70
2023/12/16 12:53:22;;;;;;;0.30;0.30;;;9.60;99.90;;;;;;4957998;28;20054;-70
2023/12/16 12:55:48;;;;;;;3.72;2.40;;;9.60;99.90;;;;;;4956987;28;20051;-70